Abergavenny, United Kingdom
Current Conditions -  °F | °C
As of 10:50 PM on Thursday 18 Dec 2014 (Local Time) from EGFF Reporting Station
Moderate Rain Moderate Rain  
Wind Chill: 54°   Ceiling: 400
Heat Index: 54°   Visibility: 4mi
Dew Point: 52°   Wind: 21mph
Humidity: 94%   Direction: 250°WSW
Pressure: 29.83"   Gusts: 32mph
Location:  51.82°N, 3.02°W
Report Text: EGFF 182250Z AUTO 25018G28KT 7000 RA OVC004 12/11 Q1010 REDZ
Loading
Personal Weather Stations






























Interactive Weather Map New forecast layout! Learn more

10-Day Weather Forecast

Advertisements
Track Severe Weather on mobile